createdAt,value
2018-06-21T00:00:49.222Z,20.00
2018-06-21T00:03:17.935Z,20.10
2018-06-21T00:05:46.687Z,20.10
2018-06-21T00:08:15.453Z,20.00
2018-06-21T00:10:44.153Z,20.00
2018-06-21T00:13:12.965Z,19.90
2018-06-21T00:15:41.692Z,19.80
2018-06-21T00:18:11.381Z,19.70
2018-06-21T00:20:40.043Z,19.60
2018-06-21T00:23:08.838Z,19.60
2018-06-21T00:25:37.809Z,19.60
2018-06-21T00:28:06.480Z,19.50
2018-06-21T00:30:35.256Z,19.70
2018-06-21T00:33:03.969Z,19.70
2018-06-21T00:35:32.714Z,19.60
2018-06-21T00:38:01.392Z,19.60
2018-06-21T00:40:30.196Z,19.50
2018-06-21T00:42:58.878Z,19.40
2018-06-21T00:45:27.576Z,19.50
2018-06-21T00:47:56.263Z,19.40
2018-06-21T00:50:25.577Z,19.40
2018-06-21T00:52:54.327Z,19.40
2018-06-21T00:55:34.142Z,19.40
2018-06-21T00:58:02.960Z,19.40
2018-06-21T01:03:00.043Z,19.40
2018-06-21T01:05:28.744Z,19.30
2018-06-21T01:07:57.445Z,19.30
2018-06-21T01:10:26.161Z,19.40
2018-06-21T01:12:54.885Z,19.40
2018-06-21T01:15:23.529Z,19.40
2018-06-21T01:17:52.299Z,19.40
2018-06-21T01:20:21.020Z,19.30
2018-06-21T01:22:49.711Z,19.10
2018-06-21T01:25:18.532Z,19.10
2018-06-21T01:27:47.239Z,19.20
2018-06-21T01:30:15.961Z,19.30
2018-06-21T01:32:44.753Z,19.20
2018-06-21T01:35:13.456Z,19.20
2018-06-21T01:37:42.130Z,19.20
2018-06-21T01:40:10.888Z,19.20
2018-06-21T01:42:39.604Z,19.20
2018-06-21T01:45:09.350Z,19.10
2018-06-21T01:47:38.069Z,19.10
2018-06-21T01:50:06.777Z,18.80
2018-06-21T01:52:35.473Z,18.60
2018-06-21T01:55:04.265Z,18.70
2018-06-21T01:57:32.973Z,18.80
2018-06-21T02:00:01.778Z,18.90
2018-06-21T02:02:30.596Z,18.70
2018-06-21T02:04:59.260Z,18.60
2018-06-21T02:07:28.042Z,18.70
2018-06-21T02:09:58.717Z,18.70
2018-06-21T02:12:28.395Z,18.50
2018-06-21T02:14:57.123Z,18.50
2018-06-21T02:17:25.912Z,18.70
2018-06-21T02:19:54.609Z,18.80
2018-06-21T02:22:24.325Z,18.80
2018-06-21T02:24:53.060Z,18.90
2018-06-21T02:27:22.294Z,19.10
2018-06-21T02:29:51.932Z,19.20
2018-06-21T02:32:20.731Z,19.20
2018-06-21T02:34:49.473Z,19.00
2018-06-21T02:37:19.186Z,18.90
2018-06-21T02:39:49.002Z,18.80
2018-06-21T02:42:17.633Z,18.80
2018-06-21T02:44:46.300Z,18.70
2018-06-21T02:47:15.033Z,18.60
2018-06-21T02:49:44.541Z,18.50
2018-06-21T02:52:13.281Z,18.60
2018-06-21T02:54:41.944Z,18.40
2018-06-21T02:57:10.651Z,18.60
2018-06-21T02:59:39.292Z,18.70
2018-06-21T03:02:08.040Z,18.80
2018-06-21T03:04:36.669Z,18.80
2018-06-21T03:07:05.384Z,18.70
2018-06-21T03:09:34.127Z,18.80
2018-06-21T03:12:02.844Z,19.00
2018-06-21T03:14:31.585Z,19.10
2018-06-21T03:17:00.261Z,19.20
2018-06-21T03:19:28.918Z,19.30
2018-06-21T03:22:01.706Z,19.20
2018-06-21T03:24:30.422Z,19.20
2018-06-21T03:26:59.136Z,19.20
2018-06-21T03:29:28.013Z,19.10
2018-06-21T03:31:56.669Z,19.20
2018-06-21T03:34:25.723Z,19.30
2018-06-21T03:36:55.541Z,19.20
2018-06-21T03:39:24.201Z,19.20
2018-06-21T03:41:52.846Z,19.20
2018-06-21T03:46:49.870Z,19.20
2018-06-21T03:49:18.556Z,19.30
2018-06-21T03:51:47.263Z,19.30
2018-06-21T03:54:15.951Z,19.30
2018-06-21T03:56:44.611Z,19.30
2018-06-21T03:59:13.325Z,19.20
2018-06-21T04:01:42.032Z,19.30
2018-06-21T04:04:10.782Z,19.30
2018-06-21T04:06:39.488Z,19.20
2018-06-21T04:09:09.853Z,19.20
2018-06-21T04:11:38.664Z,19.20
2018-06-21T04:14:07.436Z,19.30
2018-06-21T04:16:36.501Z,19.50
2018-06-21T04:19:05.588Z,19.70
2018-06-21T04:21:36.411Z,19.80
2018-06-21T04:24:05.419Z,20.30
2018-06-21T04:26:34.135Z,20.80
2018-06-21T04:29:03.082Z,21.60
2018-06-21T04:31:32.760Z,22.40
2018-06-21T04:34:01.440Z,22.70
2018-06-21T04:36:30.132Z,23.10
2018-06-21T04:38:58.823Z,23.60
2018-06-21T04:41:27.569Z,23.60
2018-06-21T04:43:56.231Z,23.80
2018-06-21T04:46:25.118Z,24.60
2018-06-21T04:48:54.140Z,24.90
2018-06-21T04:51:22.993Z,25.00
2018-06-21T04:53:51.794Z,25.30
2018-06-21T04:56:20.600Z,25.40
2018-06-21T04:58:51.369Z,25.60
2018-06-21T05:01:20.021Z,25.30
2018-06-21T05:03:49.141Z,25.00
2018-06-21T05:06:18.031Z,24.80
2018-06-21T05:08:46.797Z,24.90
2018-06-21T05:11:15.490Z,25.20
2018-06-21T05:13:44.312Z,25.10
2018-06-21T05:16:13.442Z,25.30
2018-06-21T05:18:42.189Z,25.00
2018-06-21T05:21:10.943Z,25.30
2018-06-21T05:23:39.597Z,25.00
2018-06-21T05:26:08.316Z,25.30
2018-06-21T05:28:37.039Z,25.60
2018-06-21T05:31:05.667Z,25.60
2018-06-21T05:33:36.392Z,25.20
2018-06-21T05:36:05.894Z,24.80
2018-06-21T05:38:47.481Z,24.80
2018-06-21T05:41:16.466Z,25.10
2018-06-21T05:43:45.184Z,24.70
2018-06-21T05:46:13.843Z,24.10
2018-06-21T05:48:46.494Z,23.70
2018-06-21T05:51:17.232Z,23.60
2018-06-21T05:53:47.954Z,23.20
2018-06-21T05:56:16.617Z,23.00
2018-06-21T05:58:48.542Z,23.00
2018-06-21T06:01:18.792Z,22.80
2018-06-21T06:03:48.405Z,23.10
2018-06-21T06:06:20.096Z,23.00
2018-06-21T06:08:51.705Z,23.20
2018-06-21T06:11:27.960Z,23.30
2018-06-21T06:14:00.117Z,23.20
2018-06-21T06:16:30.053Z,23.00
2018-06-21T06:19:00.160Z,23.00
2018-06-21T06:21:29.142Z,23.00
2018-06-21T06:24:02.887Z,23.00
2018-06-21T06:26:39.012Z,23.50
2018-06-21T06:29:08.587Z,23.50
2018-06-21T06:34:10.664Z,23.90
2018-06-21T06:36:39.412Z,24.00
2018-06-21T06:39:17.830Z,23.60
2018-06-21T06:41:48.883Z,23.60
2018-06-21T06:44:18.301Z,23.80
2018-06-21T06:46:47.736Z,23.80
2018-06-21T06:49:17.840Z,23.40
2018-06-21T06:51:47.762Z,23.50
2018-06-21T06:54:17.824Z,23.80
2018-06-21T06:56:47.307Z,24.10
2018-06-21T06:59:16.990Z,23.90
2018-06-21T07:01:46.591Z,24.20
2018-06-21T07:04:15.989Z,24.40
2018-06-21T07:06:45.680Z,24.20
2018-06-21T07:09:16.144Z,24.40
2018-06-21T07:11:53.208Z,24.90
2018-06-21T07:14:21.885Z,24.60
2018-06-21T07:16:53.203Z,24.90
2018-06-21T07:19:22.077Z,25.70
2018-06-21T07:21:50.749Z,25.80
2018-06-21T07:24:20.341Z,25.10
2018-06-21T07:26:51.943Z,25.20
2018-06-21T07:29:21.741Z,25.50
2018-06-21T07:34:19.628Z,25.60
2018-06-21T07:36:50.142Z,25.70
2018-06-21T07:39:19.234Z,25.20
2018-06-21T07:41:49.696Z,24.90
2018-06-21T07:44:19.427Z,24.80
2018-06-21T07:46:48.137Z,24.70
2018-06-21T07:49:16.813Z,25.20
2018-06-21T07:51:45.667Z,25.30
2018-06-21T07:54:17.990Z,25.30
2018-06-21T07:56:46.716Z,25.10
2018-06-21T07:59:15.352Z,25.20
2018-06-21T08:01:43.974Z,25.20
2018-06-21T08:04:13.696Z,25.40
2018-06-21T08:06:43.079Z,25.70
2018-06-21T08:09:13.097Z,25.30
2018-06-21T08:14:10.050Z,25.00
2018-06-21T08:16:39.824Z,25.40
2018-06-21T08:19:08.654Z,25.10
2018-06-21T08:21:37.376Z,25.00
2018-06-21T08:24:06.278Z,24.70
2018-06-21T08:26:34.893Z,24.10
2018-06-21T08:29:03.615Z,24.40
2018-06-21T08:31:32.258Z,24.40
2018-06-21T08:34:01.080Z,24.60
2018-06-21T08:36:29.782Z,24.80
2018-06-21T08:38:58.578Z,24.10
2018-06-21T08:41:33.509Z,24.10
2018-06-21T08:44:03.201Z,23.80
2018-06-21T08:46:33.868Z,23.40
2018-06-21T08:49:02.661Z,23.60
2018-06-21T08:51:31.403Z,24.50
2018-06-21T08:54:00.124Z,25.00
2018-06-21T08:56:30.719Z,25.30
2018-06-21T08:58:59.573Z,25.20
2018-06-21T09:01:28.256Z,25.20
2018-06-21T09:03:57.027Z,25.90
2018-06-21T09:06:25.656Z,25.70
2018-06-21T09:08:54.501Z,25.60
2018-06-21T09:11:23.285Z,26.00
2018-06-21T09:13:51.979Z,26.10
2018-06-21T09:16:20.728Z,26.30
2018-06-21T09:18:49.446Z,26.60
2018-06-21T09:21:18.165Z,26.40
2018-06-21T09:23:46.875Z,26.60
2018-06-21T09:26:15.549Z,26.40
2018-06-21T09:28:45.239Z,26.40
2018-06-21T09:31:13.975Z,26.90
2018-06-21T09:33:42.923Z,26.50
2018-06-21T09:36:11.542Z,26.20
2018-06-21T09:38:45.528Z,26.40
2018-06-21T09:41:19.330Z,26.60
2018-06-21T09:44:03.830Z,27.30
2018-06-21T09:46:33.876Z,27.90
2018-06-21T09:48:57.854Z,28.00
2018-06-21T09:53:58.851Z,27.70
2018-06-21T09:56:27.425Z,26.90
2018-06-21T09:58:57.178Z,26.20
2018-06-21T10:01:25.920Z,26.60
2018-06-21T10:03:55.628Z,27.20
2018-06-21T10:06:25.239Z,26.80
2018-06-21T10:08:54.037Z,27.10
2018-06-21T10:11:22.741Z,27.20
2018-06-21T10:13:51.390Z,27.00
2018-06-21T10:16:20.110Z,26.90
2018-06-21T10:18:52.602Z,27.20
2018-06-21T10:21:23.400Z,27.30
2018-06-21T10:23:54.084Z,27.30
2018-06-21T10:26:22.827Z,27.60
2018-06-21T10:28:54.191Z,27.60
2018-06-21T10:31:22.913Z,27.80
2018-06-21T10:33:51.557Z,27.90
2018-06-21T10:36:20.164Z,28.70
2018-06-21T10:38:49.966Z,27.80
2018-06-21T10:41:20.574Z,27.20
2018-06-21T10:43:49.256Z,27.00
2018-06-21T10:46:18.886Z,27.30
2018-06-21T10:48:47.534Z,27.40
2018-06-21T10:51:16.144Z,27.70
2018-06-21T10:53:46.058Z,28.00
2018-06-21T10:56:17.337Z,28.10
2018-06-21T10:58:46.028Z,27.70
2018-06-21T11:01:14.933Z,27.90
2018-06-21T11:03:43.636Z,28.30
2018-06-21T11:06:13.385Z,28.70
2018-06-21T11:08:42.101Z,28.80
2018-06-21T11:11:10.839Z,28.30
2018-06-21T11:13:39.534Z,28.60
2018-06-21T11:18:36.607Z,28.00
2018-06-21T11:21:05.308Z,28.30
2018-06-21T11:23:36.008Z,28.10
2018-06-21T11:26:04.891Z,28.20
2018-06-21T11:28:36.564Z,28.60
2018-06-21T11:31:05.366Z,29.10
2018-06-21T11:33:34.007Z,29.10
2018-06-21T11:36:04.773Z,28.60
2018-06-21T11:38:33.456Z,27.90
2018-06-21T11:41:03.157Z,28.20
2018-06-21T11:43:34.953Z,28.60
2018-06-21T11:46:04.604Z,28.70
2018-06-21T11:48:37.149Z,28.00
2018-06-21T11:51:05.840Z,27.90
2018-06-21T11:53:34.471Z,27.70
2018-06-21T11:56:03.163Z,28.50
2018-06-21T11:58:31.943Z,29.30
2018-06-21T12:01:01.717Z,28.80
2018-06-21T12:03:31.354Z,28.10
2018-06-21T12:06:00.090Z,28.50
2018-06-21T12:08:28.806Z,28.60
2018-06-21T12:11:02.385Z,29.10
2018-06-21T12:13:31.136Z,29.00
2018-06-21T12:15:59.875Z,28.60
2018-06-21T12:18:30.579Z,28.40
2018-06-21T12:20:59.316Z,28.60
2018-06-21T12:23:28.054Z,28.10
2018-06-21T12:25:57.761Z,28.10
2018-06-21T12:30:54.744Z,28.10
2018-06-21T12:33:24.481Z,28.50
2018-06-21T12:35:53.175Z,29.00
2018-06-21T12:38:21.847Z,28.90
2018-06-21T12:40:50.669Z,28.50
2018-06-21T12:43:19.344Z,28.70
2018-06-21T12:45:50.123Z,28.80
2018-06-21T12:48:20.982Z,29.10
2018-06-21T12:50:49.638Z,28.80
2018-06-21T12:53:18.263Z,28.90
2018-06-21T12:55:46.932Z,28.60
2018-06-21T12:58:17.525Z,29.00
2018-06-21T13:00:47.189Z,29.00
2018-06-21T13:03:15.863Z,29.00
2018-06-21T13:05:44.532Z,29.30
2018-06-21T13:08:24.567Z,28.80
2018-06-21T13:11:04.092Z,28.40
2018-06-21T13:13:32.729Z,28.20
2018-06-21T13:16:01.379Z,28.30
2018-06-21T13:18:31.080Z,28.60
2018-06-21T13:20:59.796Z,28.90
2018-06-21T13:23:28.399Z,28.70
2018-06-21T13:25:57.135Z,29.00
2018-06-21T13:28:25.845Z,28.60
2018-06-21T13:30:55.588Z,28.50
2018-06-21T13:33:24.236Z,28.70
2018-06-21T13:35:52.878Z,28.60
2018-06-21T13:38:21.536Z,28.50
2018-06-21T13:40:51.184Z,28.40
2018-06-21T13:43:20.856Z,27.80
2018-06-21T13:45:49.552Z,27.70
2018-06-21T13:48:18.179Z,27.90
2018-06-21T13:50:46.814Z,28.00
2018-06-21T13:53:15.440Z,28.00
2018-06-21T13:55:44.099Z,28.20
2018-06-21T13:58:13.816Z,28.70
2018-06-21T14:00:42.449Z,28.60
2018-06-21T14:03:11.157Z,28.70
2018-06-21T14:08:08.267Z,28.60
2018-06-21T14:10:37.583Z,28.30
2018-06-21T14:13:06.234Z,28.60
2018-06-21T14:15:34.873Z,28.90
2018-06-21T14:20:31.966Z,28.50
2018-06-21T14:23:00.557Z,28.50
2018-06-21T14:25:29.431Z,28.80
2018-06-21T14:27:58.152Z,28.50
2018-06-21T14:30:26.846Z,28.60
2018-06-21T14:32:55.518Z,28.50
2018-06-21T14:35:25.272Z,28.70
2018-06-21T14:37:54.925Z,28.70
2018-06-21T14:40:25.841Z,28.40
2018-06-21T14:42:56.869Z,28.10
2018-06-21T14:45:26.453Z,28.80
2018-06-21T14:47:55.109Z,28.40
2018-06-21T14:50:24.848Z,28.20
2018-06-21T14:52:53.522Z,28.20
2018-06-21T14:55:22.196Z,28.30
2018-06-21T14:57:51.645Z,28.10
2018-06-21T15:00:20.330Z,28.00
2018-06-21T15:02:50.101Z,27.80
2018-06-21T15:05:18.902Z,27.60
2018-06-21T15:07:47.589Z,27.30
2018-06-21T15:10:17.200Z,27.30
2018-06-21T15:12:45.894Z,27.30
2018-06-21T15:15:14.552Z,27.40
2018-06-21T15:17:43.549Z,27.80
2018-06-21T15:20:13.223Z,28.50
2018-06-21T15:22:42.895Z,28.70
2018-06-21T15:25:11.623Z,28.50
2018-06-21T15:27:40.461Z,28.40
2018-06-21T15:30:10.175Z,27.90
2018-06-21T15:32:38.883Z,27.60
2018-06-21T15:35:07.542Z,27.60
2018-06-21T15:37:36.255Z,27.80
2018-06-21T15:40:04.971Z,27.10
2018-06-21T15:42:33.723Z,27.20
2018-06-21T15:45:02.421Z,27.20
2018-06-21T15:47:31.204Z,27.10
2018-06-21T15:49:59.869Z,26.90
2018-06-21T15:52:28.655Z,27.10
2018-06-21T15:57:25.900Z,27.00
2018-06-21T15:59:54.514Z,27.30
2018-06-21T16:02:23.232Z,26.90
2018-06-21T16:07:20.274Z,26.10
2018-06-21T16:09:49.042Z,25.90
2018-06-21T16:12:17.703Z,26.00
2018-06-21T16:14:46.423Z,25.80
2018-06-21T16:17:15.083Z,25.80
2018-06-21T16:19:43.844Z,25.70
2018-06-21T16:22:12.550Z,25.70
2018-06-21T16:24:41.224Z,25.60
2018-06-21T16:27:09.974Z,25.40
2018-06-21T16:29:39.717Z,25.50
2018-06-21T16:32:08.406Z,25.30
2018-06-21T16:34:37.068Z,25.40
2018-06-21T16:37:05.883Z,25.40
2018-06-21T16:39:35.648Z,25.30
2018-06-21T16:42:04.413Z,25.10
2018-06-21T16:47:04.096Z,24.80
2018-06-21T16:49:33.784Z,24.70
2018-06-21T16:52:02.444Z,24.80
2018-06-21T16:54:31.165Z,24.80
2018-06-21T16:57:00.859Z,24.80
2018-06-21T16:59:32.694Z,24.80
2018-06-21T17:02:01.379Z,24.80
2018-06-21T17:04:30.179Z,24.80
2018-06-21T17:06:59.834Z,24.70
2018-06-21T17:09:30.678Z,24.70
2018-06-21T17:11:59.451Z,24.70
2018-06-21T17:14:28.134Z,24.80
2018-06-21T17:16:58.549Z,24.70
2018-06-21T17:19:27.277Z,24.70
2018-06-21T17:21:55.932Z,24.60
2018-06-21T17:24:26.030Z,24.50
2018-06-21T17:26:55.315Z,24.60
2018-06-21T17:29:26.134Z,24.70
2018-06-21T17:31:54.840Z,24.70
2018-06-21T17:34:23.580Z,24.70
2018-06-21T17:36:52.364Z,24.70
2018-06-21T17:39:21.142Z,24.60
2018-06-21T17:41:50.743Z,24.50
2018-06-21T17:44:20.550Z,24.50
2018-06-21T17:46:50.288Z,24.40
2018-06-21T17:49:20.418Z,24.20
2018-06-21T17:51:49.388Z,24.20
2018-06-21T17:54:18.154Z,24.20
2018-06-21T17:56:47.943Z,24.10
2018-06-21T17:59:19.683Z,24.00
2018-06-21T18:01:48.369Z,24.00
2018-06-21T18:04:17.023Z,23.90
2018-06-21T18:06:45.778Z,23.80
2018-06-21T18:09:16.432Z,23.80
2018-06-21T18:11:45.198Z,23.80
2018-06-21T18:14:13.885Z,23.70
2018-06-21T18:16:42.679Z,23.70
2018-06-21T18:19:12.142Z,23.50
2018-06-21T18:21:41.631Z,23.40
2018-06-21T18:24:10.345Z,23.40
2018-06-21T18:26:39.269Z,23.40
2018-06-21T18:29:08.141Z,23.30
2018-06-21T18:31:37.074Z,23.20
2018-06-21T18:34:06.787Z,23.10
2018-06-21T18:36:35.728Z,23.00
2018-06-21T18:39:06.060Z,22.90
2018-06-21T18:41:35.793Z,22.80
2018-06-21T18:44:05.536Z,22.70
2018-06-21T18:46:34.923Z,22.60
2018-06-21T18:49:04.943Z,22.50
2018-06-21T18:51:33.775Z,22.50
2018-06-21T18:54:03.054Z,22.40
2018-06-21T18:56:31.909Z,22.30
2018-06-21T18:59:00.812Z,22.30
2018-06-21T19:01:31.901Z,22.10
2018-06-21T19:04:00.677Z,22.10
2018-06-21T19:06:34.728Z,22.00
2018-06-21T19:09:09.127Z,22.00
2018-06-21T19:11:47.234Z,22.00
2018-06-21T19:16:46.760Z,21.80
2018-06-21T19:19:15.687Z,21.60
2018-06-21T19:21:45.900Z,21.40
2018-06-21T19:24:14.916Z,21.00
2018-06-21T19:26:43.625Z,20.90
2018-06-21T19:29:12.675Z,20.90
2018-06-21T19:31:41.471Z,20.80
2018-06-21T19:34:11.158Z,20.90
2018-06-21T19:36:40.998Z,20.90
2018-06-21T19:39:12.219Z,20.90
2018-06-21T19:41:44.774Z,20.90
2018-06-21T19:44:13.949Z,21.00
2018-06-21T19:46:43.707Z,21.00
2018-06-21T19:49:12.363Z,21.00
2018-06-21T19:51:41.118Z,20.90
2018-06-21T19:54:13.690Z,20.80
2018-06-21T19:56:43.291Z,20.80
2018-06-21T19:59:18.590Z,20.80
2018-06-21T20:01:48.109Z,20.80
2018-06-21T20:04:18.930Z,20.80
2018-06-21T20:06:49.027Z,20.80
2018-06-21T20:09:18.103Z,20.70
2018-06-21T20:11:46.838Z,20.70
2018-06-21T20:14:15.653Z,20.70
2018-06-21T20:16:47.450Z,20.60
2018-06-21T20:19:18.740Z,20.60
2018-06-21T20:21:49.946Z,20.60
2018-06-21T20:24:18.888Z,20.50
2018-06-21T20:26:49.712Z,20.50
2018-06-21T20:29:19.989Z,20.50
2018-06-21T20:31:49.755Z,20.40
2018-06-21T20:34:19.647Z,20.40
2018-06-21T20:36:52.711Z,20.30
2018-06-21T20:39:21.770Z,20.30
2018-06-21T20:41:50.398Z,20.30
2018-06-21T20:44:20.141Z,20.20
2018-06-21T20:46:48.843Z,20.20
2018-06-21T20:49:17.694Z,20.10
2018-06-21T20:51:48.397Z,20.10
2018-06-21T20:54:18.147Z,20.00
2018-06-21T20:56:46.890Z,20.00
2018-06-21T20:59:15.530Z,20.00
2018-06-21T21:01:44.188Z,20.00
2018-06-21T21:04:13.947Z,20.00
2018-06-21T21:06:48.451Z,19.90
2018-06-21T21:09:17.098Z,19.90
2018-06-21T21:11:45.818Z,19.90
2018-06-21T21:14:16.571Z,19.90
2018-06-21T21:16:45.276Z,19.80
2018-06-21T21:19:14.977Z,19.70
2018-06-21T21:21:43.732Z,19.70
2018-06-21T21:24:14.625Z,19.60
2018-06-21T21:26:43.310Z,19.60
2018-06-21T21:29:12.003Z,19.50
2018-06-21T21:31:41.441Z,19.60
2018-06-21T21:34:10.002Z,19.50
2018-06-21T21:36:38.755Z,19.60
2018-06-21T21:39:08.912Z,19.50
2018-06-21T21:41:37.543Z,19.40
2018-06-21T21:44:06.526Z,19.40
2018-06-21T21:46:36.070Z,19.30
2018-06-21T21:49:04.829Z,19.20
2018-06-21T21:51:33.527Z,19.00
2018-06-21T21:54:02.230Z,19.00
2018-06-21T21:56:32.857Z,18.80
2018-06-21T21:59:01.569Z,18.70
2018-06-21T22:01:30.306Z,18.50
2018-06-21T22:03:59.929Z,18.00
2018-06-21T22:06:28.863Z,17.80
2018-06-21T22:08:57.599Z,17.60
2018-06-21T22:11:27.291Z,17.60
2018-06-21T22:14:01.266Z,17.50
2018-06-21T22:16:30.965Z,17.30
2018-06-21T22:19:03.631Z,17.30
2018-06-21T22:21:32.464Z,17.20
2018-06-21T22:24:01.113Z,17.00
2018-06-21T22:26:29.782Z,17.00
2018-06-21T22:28:59.574Z,17.00
2018-06-21T22:31:29.348Z,16.80
2018-06-21T22:33:58.050Z,16.70
2018-06-21T22:36:26.671Z,16.80
2018-06-21T22:38:55.283Z,16.80
2018-06-21T22:41:25.961Z,16.70
2018-06-21T22:43:55.667Z,16.60
2018-06-21T22:46:24.317Z,16.60
2018-06-21T22:48:54.022Z,16.20
2018-06-21T22:51:22.630Z,16.00
2018-06-21T22:53:51.350Z,15.70
2018-06-21T22:56:20.015Z,15.80
2018-06-21T23:01:16.987Z,15.60
2018-06-21T23:03:46.718Z,15.70
2018-06-21T23:06:15.419Z,15.70
2018-06-21T23:08:44.160Z,15.70
2018-06-21T23:11:12.907Z,15.70
2018-06-21T23:13:43.850Z,15.80
2018-06-21T23:16:16.259Z,15.70
2018-06-21T23:18:56.143Z,15.80
2018-06-21T23:21:25.891Z,15.80
2018-06-21T23:23:55.532Z,15.80
2018-06-21T23:26:24.250Z,15.80
2018-06-21T23:28:52.990Z,15.90
2018-06-21T23:31:21.556Z,15.90
2018-06-21T23:33:52.203Z,15.80
2018-06-21T23:36:21.913Z,15.80
2018-06-21T23:38:54.212Z,15.80
2018-06-21T23:43:15.836Z,15.80
2018-06-21T23:45:45.599Z,15.80
2018-06-21T23:48:16.229Z,15.80
2018-06-21T23:50:45.108Z,15.80
2018-06-21T23:53:13.728Z,15.80
2018-06-21T23:55:42.871Z,15.80
